sensor_id;sensor_type;location;lat;lon;timestamp;pressure;altitude;pressure_sealevel;temperature;humidity
17383;BME280;8809;51.892;8.384;2024-03-22T00:01:44;101154.44;;;11.50;100.00
17383;BME280;8809;51.892;8.384;2024-03-22T00:04:11;101150.38;;;11.57;100.00
17383;BME280;8809;51.892;8.384;2024-03-22T00:06:37;101150.66;;;11.63;100.00
17383;BME280;8809;51.892;8.384;2024-03-22T00:09:03;101147.75;;;11.75;100.00
17383;BME280;8809;51.892;8.384;2024-03-22T00:11:29;101143.09;;;11.50;100.00
17383;BME280;8809;51.892;8.384;2024-03-22T00:13:56;101130.97;;;11.33;100.00
17383;BME280;8809;51.892;8.384;2024-03-22T00:16:21;101134.91;;;11.42;100.00
17383;BME280;8809;51.892;8.384;2024-03-22T00:18:49;101126.66;;;11.33;100.00
17383;BME280;8809;51.892;8.384;2024-03-22T00:21:15;101132.00;;;11.36;100.00
17383;BME280;8809;51.892;8.384;2024-03-22T00:23:42;101129.38;;;11.36;100.00
17383;BME280;8809;51.892;8.384;2024-03-22T00:26:08;101134.84;;;11.41;100.00
17383;BME280;8809;51.892;8.384;2024-03-22T00:28:35;101128.00;;;11.44;100.00
17383;BME280;8809;51.892;8.384;2024-03-22T00:31:00;101130.03;;;11.50;100.00
17383;BME280;8809;51.892;8.384;2024-03-22T00:33:27;101122.63;;;11.59;100.00
17383;BME280;8809;51.892;8.384;2024-03-22T00:35:54;101121.72;;;11.59;100.00
17383;BME280;8809;51.892;8.384;2024-03-22T00:38:21;101118.28;;;11.60;100.00
17383;BME280;8809;51.892;8.384;2024-03-22T00:40:46;101120.41;;;11.68;100.00
17383;BME280;8809;51.892;8.384;2024-03-22T00:43:13;101107.13;;;11.64;100.00
17383;BME280;8809;51.892;8.384;2024-03-22T00:45:39;101102.19;;;11.70;100.00
17383;BME280;8809;51.892;8.384;2024-03-22T00:48:06;101106.59;;;11.71;100.00
17383;BME280;8809;51.892;8.384;2024-03-22T00:50:31;101111.13;;;11.56;100.00
17383;BME280;8809;51.892;8.384;2024-03-22T00:53:00;101095.31;;;11.72;100.00
17383;BME280;8809;51.892;8.384;2024-03-22T00:55:28;101092.84;;;11.75;100.00
17383;BME280;8809;51.892;8.384;2024-03-22T00:57:55;101082.47;;;11.76;100.00
17383;BME280;8809;51.892;8.384;2024-03-22T01:00:21;101076.81;;;11.67;100.00
17383;BME280;8809;51.892;8.384;2024-03-22T01:02:49;101075.59;;;11.78;100.00
17383;BME280;8809;51.892;8.384;2024-03-22T01:05:15;101066.03;;;11.79;100.00
17383;BME280;8809;51.892;8.384;2024-03-22T01:07:42;101063.69;;;11.85;100.00
17383;BME280;8809;51.892;8.384;2024-03-22T01:10:10;101071.66;;;11.88;100.00
17383;BME280;8809;51.892;8.384;2024-03-22T01:12:36;101067.63;;;11.75;100.00
17383;BME280;8809;51.892;8.384;2024-03-22T01:15:03;101070.09;;;11.72;100.00
17383;BME280;8809;51.892;8.384;2024-03-22T01:17:30;101071.19;;;11.77;100.00
17383;BME280;8809;51.892;8.384;2024-03-22T01:19:55;101073.75;;;11.76;100.00
17383;BME280;8809;51.892;8.384;2024-03-22T01:22:22;101058.78;;;11.93;100.00
17383;BME280;8809;51.892;8.384;2024-03-22T01:24:49;101056.75;;;11.85;100.00
17383;BME280;8809;51.892;8.384;2024-03-22T01:27:17;101057.22;;;11.77;100.00
17383;BME280;8809;51.892;8.384;2024-03-22T01:29:42;101050.22;;;11.76;100.00
17383;BME280;8809;51.892;8.384;2024-03-22T01:32:09;101042.59;;;11.80;100.00
17383;BME280;8809;51.892;8.384;2024-03-22T01:34:35;101034.19;;;11.87;100.00
17383;BME280;8809;51.892;8.384;2024-03-22T01:37:01;101029.84;;;11.88;100.00
17383;BME280;8809;51.892;8.384;2024-03-22T01:39:28;101026.72;;;11.97;100.00
17383;BME280;8809;51.892;8.384;2024-03-22T01:41:55;101027.75;;;12.00;100.00
17383;BME280;8809;51.892;8.384;2024-03-22T01:44:27;101027.69;;;11.99;100.00
17383;BME280;8809;51.892;8.384;2024-03-22T01:46:54;101014.28;;;11.91;100.00
17383;BME280;8809;51.892;8.384;2024-03-22T01:49:21;101022.38;;;11.97;100.00
17383;BME280;8809;51.892;8.384;2024-03-22T01:51:48;101023.75;;;12.08;100.00
17383;BME280;8809;51.892;8.384;2024-03-22T01:54:16;101021.31;;;12.13;100.00
17383;BME280;8809;51.892;8.384;2024-03-22T01:56:42;101020.63;;;12.17;100.00
17383;BME280;8809;51.892;8.384;2024-03-22T01:59:09;101008.88;;;12.07;100.00
17383;BME280;8809;51.892;8.384;2024-03-22T02:01:37;100990.56;;;12.07;100.00
17383;BME280;8809;51.892;8.384;2024-03-22T02:04:03;100986.91;;;12.04;100.00
17383;BME280;8809;51.892;8.384;2024-03-22T02:06:30;100985.03;;;12.20;100.00
17383;BME280;8809;51.892;8.384;2024-03-22T02:08:56;100990.56;;;12.28;100.00
17383;BME280;8809;51.892;8.384;2024-03-22T02:11:24;100986.41;;;12.33;100.00
17383;BME280;8809;51.892;8.384;2024-03-22T02:13:51;100986.41;;;12.12;100.00
17383;BME280;8809;51.892;8.384;2024-03-22T02:16:17;100974.81;;;12.06;100.00
17383;BME280;8809;51.892;8.384;2024-03-22T02:18:45;100955.00;;;12.11;100.00
17383;BME280;8809;51.892;8.384;2024-03-22T02:21:11;100955.09;;;12.14;100.00
17383;BME280;8809;51.892;8.384;2024-03-22T02:23:39;100951.50;;;12.12;100.00
17383;BME280;8809;51.892;8.384;2024-03-22T02:26:07;100944.38;;;12.08;100.00
17383;BME280;8809;51.892;8.384;2024-03-22T02:28:34;100956.13;;;12.17;100.00
17383;BME280;8809;51.892;8.384;2024-03-22T02:31:01;100943.72;;;12.13;100.00
17383;BME280;8809;51.892;8.384;2024-03-22T02:33:27;100947.91;;;12.08;100.00
17383;BME280;8809;51.892;8.384;2024-03-22T02:35:54;100935.81;;;12.12;100.00
17383;BME280;8809;51.892;8.384;2024-03-22T02:38:20;100931.44;;;12.11;100.00
17383;BME280;8809;51.892;8.384;2024-03-22T02:40:50;100928.19;;;12.16;100.00
17383;BME280;8809;51.892;8.384;2024-03-22T02:43:16;100924.81;;;12.19;100.00
17383;BME280;8809;51.892;8.384;2024-03-22T02:45:44;100925.69;;;12.19;100.00
17383;BME280;8809;51.892;8.384;2024-03-22T02:48:10;100923.44;;;12.29;100.00
17383;BME280;8809;51.892;8.384;2024-03-22T02:50:37;100917.94;;;12.22;100.00
17383;BME280;8809;51.892;8.384;2024-03-22T02:53:03;100916.34;;;12.26;100.00
17383;BME280;8809;51.892;8.384;2024-03-22T02:55:36;100922.72;;;12.10;100.00
17383;BME280;8809;51.892;8.384;2024-03-22T02:58:03;100907.25;;;12.16;100.00
17383;BME280;8809;51.892;8.384;2024-03-22T03:00:30;100903.94;;;12.20;100.00
17383;BME280;8809;51.892;8.384;2024-03-22T03:02:56;100902.16;;;12.19;100.00
17383;BME280;8809;51.892;8.384;2024-03-22T03:05:23;100893.22;;;12.14;100.00
17383;BME280;8809;51.892;8.384;2024-03-22T03:07:49;100893.28;;;12.16;100.00
17383;BME280;8809;51.892;8.384;2024-03-22T03:10:16;100886.50;;;12.21;100.00
17383;BME280;8809;51.892;8.384;2024-03-22T03:12:41;100883.94;;;12.22;100.00
17383;BME280;8809;51.892;8.384;2024-03-22T03:15:10;100889.25;;;12.24;100.00
17383;BME280;8809;51.892;8.384;2024-03-22T03:17:35;100874.09;;;12.15;100.00
17383;BME280;8809;51.892;8.384;2024-03-22T03:20:03;100872.50;;;12.19;100.00
17383;BME280;8809;51.892;8.384;2024-03-22T03:22:33;100888.25;;;12.20;100.00
17383;BME280;8809;51.892;8.384;2024-03-22T03:24:59;100888.34;;;12.23;100.00
17383;BME280;8809;51.892;8.384;2024-03-22T03:27:25;100886.47;;;12.19;100.00
17383;BME280;8809;51.892;8.384;2024-03-22T03:29:52;100887.97;;;12.14;100.00
17383;BME280;8809;51.892;8.384;2024-03-22T03:32:19;100882.88;;;12.17;100.00
17383;BME280;8809;51.892;8.384;2024-03-22T03:34:46;100881.94;;;12.15;100.00
17383;BME280;8809;51.892;8.384;2024-03-22T03:37:11;100873.94;;;12.12;100.00
17383;BME280;8809;51.892;8.384;2024-03-22T03:39:38;100876.63;;;12.14;100.00
17383;BME280;8809;51.892;8.384;2024-03-22T03:42:04;100859.22;;;12.14;100.00
17383;BME280;8809;51.892;8.384;2024-03-22T03:44:31;100864.38;;;12.13;100.00
17383;BME280;8809;51.892;8.384;2024-03-22T03:46:56;100856.06;;;12.23;100.00
17383;BME280;8809;51.892;8.384;2024-03-22T03:49:24;100843.19;;;12.27;100.00
17383;BME280;8809;51.892;8.384;2024-03-22T03:51:50;100840.56;;;12.27;100.00
17383;BME280;8809;51.892;8.384;2024-03-22T03:54:17;100834.56;;;12.30;100.00
17383;BME280;8809;51.892;8.384;2024-03-22T03:56:42;100819.56;;;12.26;100.00
17383;BME280;8809;51.892;8.384;2024-03-22T03:59:09;100819.69;;;12.29;100.00
17383;BME280;8809;51.892;8.384;2024-03-22T04:01:35;100816.41;;;12.35;100.00
17383;BME280;8809;51.892;8.384;2024-03-22T04:04:02;100806.78;;;12.34;100.00
17383;BME280;8809;51.892;8.384;2024-03-22T04:06:29;100812.75;;;12.30;100.00
17383;BME280;8809;51.892;8.384;2024-03-22T04:08:56;100801.31;;;12.27;100.00
17383;BME280;8809;51.892;8.384;2024-03-22T04:11:22;100807.44;;;12.28;100.00
17383;BME280;8809;51.892;8.384;2024-03-22T04:13:49;100798.78;;;12.29;100.00
17383;BME280;8809;51.892;8.384;2024-03-22T04:16:15;100795.31;;;12.30;100.00
17383;BME280;8809;51.892;8.384;2024-03-22T04:18:42;100792.66;;;12.29;100.00
17383;BME280;8809;51.892;8.384;2024-03-22T04:21:07;100789.97;;;12.27;100.00
17383;BME280;8809;51.892;8.384;2024-03-22T04:23:35;100776.94;;;12.29;100.00
17383;BME280;8809;51.892;8.384;2024-03-22T04:26:02;100783.38;;;12.14;100.00
17383;BME280;8809;51.892;8.384;2024-03-22T04:28:29;100777.78;;;12.05;100.00
17383;BME280;8809;51.892;8.384;2024-03-22T04:30:57;100778.28;;;11.95;100.00
17383;BME280;8809;51.892;8.384;2024-03-22T04:33:25;100772.56;;;12.05;100.00
17383;BME280;8809;51.892;8.384;2024-03-22T04:35:50;100762.09;;;12.05;100.00
17383;BME280;8809;51.892;8.384;2024-03-22T04:38:17;100765.53;;;12.04;100.00
17383;BME280;8809;51.892;8.384;2024-03-22T04:40:45;100762.16;;;12.07;100.00
17383;BME280;8809;51.892;8.384;2024-03-22T04:43:14;100759.69;;;12.10;100.00
17383;BME280;8809;51.892;8.384;2024-03-22T04:45:41;100762.31;;;12.11;100.00
17383;BME280;8809;51.892;8.384;2024-03-22T04:48:08;100765.91;;;12.13;100.00
17383;BME280;8809;51.892;8.384;2024-03-22T04:50:34;100759.69;;;12.10;100.00
17383;BME280;8809;51.892;8.384;2024-03-22T04:53:01;100752.81;;;12.13;100.00
17383;BME280;8809;51.892;8.384;2024-03-22T04:55:26;100744.22;;;12.16;100.00
17383;BME280;8809;51.892;8.384;2024-03-22T04:57:55;100743.19;;;12.12;100.00
17383;BME280;8809;51.892;8.384;2024-03-22T05:00:21;100742.59;;;12.19;100.00
17383;BME280;8809;51.892;8.384;2024-03-22T05:02:47;100743.66;;;12.24;100.00
17383;BME280;8809;51.892;8.384;2024-03-22T05:05:13;100733.94;;;12.20;100.00
17383;BME280;8809;51.892;8.384;2024-03-22T05:07:40;100738.28;;;12.21;100.00
17383;BME280;8809;51.892;8.384;2024-03-22T05:10:06;100731.34;;;12.22;100.00
17383;BME280;8809;51.892;8.384;2024-03-22T05:12:34;100737.53;;;12.24;100.00
17383;BME280;8809;51.892;8.384;2024-03-22T05:15:02;100735.09;;;12.29;100.00
17383;BME280;8809;51.892;8.384;2024-03-22T05:17:28;100733.31;;;12.27;100.00
17383;BME280;8809;51.892;8.384;2024-03-22T05:19:55;100734.25;;;12.30;100.00
17383;BME280;8809;51.892;8.384;2024-03-22T05:22:21;100725.63;;;12.32;100.00
17383;BME280;8809;51.892;8.384;2024-03-22T05:24:47;100722.09;;;12.32;100.00
17383;BME280;8809;51.892;8.384;2024-03-22T05:27:14;100723.81;;;12.30;100.00
17383;BME280;8809;51.892;8.384;2024-03-22T05:29:40;100717.63;;;12.27;100.00
17383;BME280;8809;51.892;8.384;2024-03-22T05:32:08;100721.41;;;12.36;100.00
17383;BME280;8809;51.892;8.384;2024-03-22T05:34:34;100719.59;;;12.35;100.00
17383;BME280;8809;51.892;8.384;2024-03-22T05:37:02;100716.44;;;12.43;100.00
17383;BME280;8809;51.892;8.384;2024-03-22T05:39:28;100720.78;;;12.43;100.00
17383;BME280;8809;51.892;8.384;2024-03-22T05:41:54;100721.91;;;12.49;100.00
17383;BME280;8809;51.892;8.384;2024-03-22T05:44:21;100709.59;;;12.47;100.00
17383;BME280;8809;51.892;8.384;2024-03-22T05:46:48;100709.03;;;12.55;100.00
17383;BME280;8809;51.892;8.384;2024-03-22T05:49:15;100710.03;;;12.59;100.00
17383;BME280;8809;51.892;8.384;2024-03-22T05:51:42;100711.78;;;12.60;100.00
17383;BME280;8809;51.892;8.384;2024-03-22T05:54:08;100714.00;;;12.73;100.00
17383;BME280;8809;51.892;8.384;2024-03-22T05:56:35;100713.56;;;12.61;100.00
17383;BME280;8809;51.892;8.384;2024-03-22T05:59:00;100719.03;;;12.67;100.00
17383;BME280;8809;51.892;8.384;2024-03-22T06:01:28;100721.53;;;12.64;100.00
17383;BME280;8809;51.892;8.384;2024-03-22T06:03:54;100716.63;;;12.48;100.00
17383;BME280;8809;51.892;8.384;2024-03-22T06:06:22;100718.34;;;12.47;100.00
17383;BME280;8809;51.892;8.384;2024-03-22T06:08:50;100722.56;;;12.44;100.00
17383;BME280;8809;51.892;8.384;2024-03-22T06:11:19;100720.81;;;12.68;100.00
17383;BME280;8809;51.892;8.384;2024-03-22T06:13:45;100727.59;;;12.87;100.00
17383;BME280;8809;51.892;8.384;2024-03-22T06:16:12;100728.09;;;12.77;100.00
17383;BME280;8809;51.892;8.384;2024-03-22T06:18:37;100719.13;;;12.70;100.00
17383;BME280;8809;51.892;8.384;2024-03-22T06:21:04;100723.25;;;12.87;100.00
17383;BME280;8809;51.892;8.384;2024-03-22T06:23:31;100714.97;;;12.75;100.00
17383;BME280;8809;51.892;8.384;2024-03-22T06:25:58;100712.69;;;12.60;100.00
17383;BME280;8809;51.892;8.384;2024-03-22T06:28:27;100703.34;;;12.67;100.00
17383;BME280;8809;51.892;8.384;2024-03-22T06:30:54;100701.97;;;12.78;100.00
17383;BME280;8809;51.892;8.384;2024-03-22T06:33:20;100698.91;;;12.91;100.00
17383;BME280;8809;51.892;8.384;2024-03-22T06:35:47;100698.19;;;12.95;100.00
17383;BME280;8809;51.892;8.384;2024-03-22T06:38:13;100687.06;;;13.02;100.00
17383;BME280;8809;51.892;8.384;2024-03-22T06:40:41;100690.41;;;12.97;100.00
17383;BME280;8809;51.892;8.384;2024-03-22T06:43:07;100687.22;;;13.07;100.00
17383;BME280;8809;51.892;8.384;2024-03-22T06:45:34;100695.97;;;13.08;100.00
17383;BME280;8809;51.892;8.384;2024-03-22T06:48:00;100696.06;;;13.11;100.00
17383;BME280;8809;51.892;8.384;2024-03-22T06:50:27;100698.38;;;13.01;100.00
17383;BME280;8809;51.892;8.384;2024-03-22T06:52:52;100695.41;;;12.91;100.00
17383;BME280;8809;51.892;8.384;2024-03-22T06:55:19;100684.03;;;13.43;100.00
17383;BME280;8809;51.892;8.384;2024-03-22T06:57:47;100682.31;;;13.43;100.00
17383;BME280;8809;51.892;8.384;2024-03-22T07:00:15;100682.41;;;13.19;100.00
17383;BME280;8809;51.892;8.384;2024-03-22T07:02:40;100676.91;;;13.12;100.00
17383;BME280;8809;51.892;8.384;2024-03-22T07:05:08;100671.09;;;13.20;100.00
17383;BME280;8809;51.892;8.384;2024-03-22T07:07:34;100676.97;;;13.68;100.00
17383;BME280;8809;51.892;8.384;2024-03-22T07:10:01;100685.25;;;13.82;100.00
17383;BME280;8809;51.892;8.384;2024-03-22T07:12:27;100687.72;;;13.78;100.00
17383;BME280;8809;51.892;8.384;2024-03-22T07:14:55;100693.44;;;13.93;100.00
17383;BME280;8809;51.892;8.384;2024-03-22T07:17:21;100692.47;;;13.89;100.00
17383;BME280;8809;51.892;8.384;2024-03-22T07:19:50;100695.66;;;14.09;100.00
17383;BME280;8809;51.892;8.384;2024-03-22T07:22:16;100685.59;;;13.93;100.00
17383;BME280;8809;51.892;8.384;2024-03-22T07:24:46;100684.69;;;13.92;100.00
17383;BME280;8809;51.892;8.384;2024-03-22T07:27:12;100682.22;;;13.98;100.00
17383;BME280;8809;51.892;8.384;2024-03-22T07:29:39;100682.19;;;13.97;100.00
17383;BME280;8809;51.892;8.384;2024-03-22T07:32:06;100674.69;;;14.09;100.00
17383;BME280;8809;51.892;8.384;2024-03-22T07:34:33;100676.81;;;14.24;100.00
17383;BME280;8809;51.892;8.384;2024-03-22T07:36:59;100673.34;;;14.25;100.00
17383;BME280;8809;51.892;8.384;2024-03-22T07:39:25;100668.31;;;14.31;100.00
17383;BME280;8809;51.892;8.384;2024-03-22T07:41:51;100664.34;;;14.15;100.00
17383;BME280;8809;51.892;8.384;2024-03-22T07:44:18;100667.97;;;13.89;100.00
17383;BME280;8809;51.892;8.384;2024-03-22T07:46:45;100650.63;;;13.94;100.00
17383;BME280;8809;51.892;8.384;2024-03-22T07:49:13;100643.03;;;14.03;100.00
17383;BME280;8809;51.892;8.384;2024-03-22T07:51:39;100642.72;;;13.92;100.00
17383;BME280;8809;51.892;8.384;2024-03-22T07:54:06;100647.16;;;13.95;100.00
17383;BME280;8809;51.892;8.384;2024-03-22T07:56:32;100639.38;;;13.98;100.00
17383;BME280;8809;51.892;8.384;2024-03-22T07:58:59;100646.56;;;14.05;100.00
17383;BME280;8809;51.892;8.384;2024-03-22T08:01:25;100644.19;;;14.14;100.00
17383;BME280;8809;51.892;8.384;2024-03-22T08:03:52;100648.69;;;14.18;100.00
17383;BME280;8809;51.892;8.384;2024-03-22T08:06:20;100637.72;;;14.33;100.00
17383;BME280;8809;51.892;8.384;2024-03-22T08:08:47;100646.06;;;14.48;100.00
17383;BME280;8809;51.892;8.384;2024-03-22T08:11:12;100639.22;;;14.55;100.00
17383;BME280;8809;51.892;8.384;2024-03-22T08:13:39;100645.00;;;14.41;100.00
17383;BME280;8809;51.892;8.384;2024-03-22T08:16:05;100641.22;;;14.33;100.00
17383;BME280;8809;51.892;8.384;2024-03-22T08:18:32;100642.22;;;14.37;100.00
17383;BME280;8809;51.892;8.384;2024-03-22T08:20:58;100642.38;;;14.41;100.00
17383;BME280;8809;51.892;8.384;2024-03-22T08:23:26;100651.22;;;14.45;99.18
17383;BME280;8809;51.892;8.384;2024-03-22T08:25:52;100638.38;;;14.56;99.21
17383;BME280;8809;51.892;8.384;2024-03-22T08:28:19;100639.31;;;14.58;97.79
17383;BME280;8809;51.892;8.384;2024-03-22T08:30:45;100655.41;;;14.71;96.28
17383;BME280;8809;51.892;8.384;2024-03-22T08:33:12;100645.09;;;14.79;95.51
17383;BME280;8809;51.892;8.384;2024-03-22T08:35:37;100646.91;;;14.81;95.18
17383;BME280;8809;51.892;8.384;2024-03-22T08:38:05;100647.75;;;14.80;94.38
17383;BME280;8809;51.892;8.384;2024-03-22T08:40:37;100636.75;;;14.95;93.70
17383;BME280;8809;51.892;8.384;2024-03-22T08:43:04;100639.47;;;15.00;92.93
17383;BME280;8809;51.892;8.384;2024-03-22T08:45:30;100627.22;;;14.99;92.44
17383;BME280;8809;51.892;8.384;2024-03-22T08:47:57;100633.41;;;15.02;91.60
17383;BME280;8809;51.892;8.384;2024-03-22T08:50:22;100633.28;;;14.96;90.86
17383;BME280;8809;51.892;8.384;2024-03-22T08:52:50;100624.44;;;15.30;88.60
17383;BME280;8809;51.892;8.384;2024-03-22T08:55:16;100632.63;;;15.44;87.94
17383;BME280;8809;51.892;8.384;2024-03-22T08:57:45;100625.28;;;15.28;88.74
17383;BME280;8809;51.892;8.384;2024-03-22T09:00:11;100632.66;;;15.06;88.70
17383;BME280;8809;51.892;8.384;2024-03-22T09:02:38;100621.84;;;15.32;86.18
17383;BME280;8809;51.892;8.384;2024-03-22T09:05:04;100630.19;;;15.51;83.45
17383;BME280;8809;51.892;8.384;2024-03-22T09:07:31;100618.88;;;15.54;82.89
17383;BME280;8809;51.892;8.384;2024-03-22T09:09:57;100612.53;;;15.46;82.19
17383;BME280;8809;51.892;8.384;2024-03-22T09:12:24;100614.75;;;15.65;81.77
17383;BME280;8809;51.892;8.384;2024-03-22T09:14:51;100609.38;;;15.61;82.46
17383;BME280;8809;51.892;8.384;2024-03-22T09:17:18;100606.56;;;15.53;83.09
17383;BME280;8809;51.892;8.384;2024-03-22T09:19:43;100605.09;;;15.66;80.69
17383;BME280;8809;51.892;8.384;2024-03-22T09:22:10;100595.72;;;15.39;81.36
17383;BME280;8809;51.892;8.384;2024-03-22T09:24:36;100600.25;;;15.45;81.44
17383;BME280;8809;51.892;8.384;2024-03-22T09:27:03;100591.22;;;15.34;82.10
17383;BME280;8809;51.892;8.384;2024-03-22T09:29:34;100594.16;;;15.10;83.27
17383;BME280;8809;51.892;8.384;2024-03-22T09:32:02;100593.06;;;15.00;83.54
17383;BME280;8809;51.892;8.384;2024-03-22T09:34:27;100599.22;;;14.99;82.22
17383;BME280;8809;51.892;8.384;2024-03-22T09:36:55;100597.56;;;15.04;81.96
17383;BME280;8809;51.892;8.384;2024-03-22T09:39:20;100595.78;;;15.03;79.65
17383;BME280;8809;51.892;8.384;2024-03-22T09:41:47;100583.03;;;15.20;79.14
17383;BME280;8809;51.892;8.384;2024-03-22T09:44:18;100579.59;;;15.22;79.00
17383;BME280;8809;51.892;8.384;2024-03-22T09:46:46;100577.22;;;15.35;77.44
17383;BME280;8809;51.892;8.384;2024-03-22T09:49:13;100570.19;;;15.34;78.51
17383;BME280;8809;51.892;8.384;2024-03-22T09:51:41;100577.16;;;15.32;79.20
17383;BME280;8809;51.892;8.384;2024-03-22T09:54:08;100566.03;;;15.43;78.41
17383;BME280;8809;51.892;8.384;2024-03-22T09:56:37;100575.06;;;15.15;79.17
17383;BME280;8809;51.892;8.384;2024-03-22T09:59:03;100576.75;;;15.13;79.37
17383;BME280;8809;51.892;8.384;2024-03-22T10:01:30;100566.00;;;15.42;78.50
17383;BME280;8809;51.892;8.384;2024-03-22T10:03:57;100563.84;;;15.24;80.54
17383;BME280;8809;51.892;8.384;2024-03-22T10:06:25;100569.91;;;15.21;79.90
17383;BME280;8809;51.892;8.384;2024-03-22T10:08:50;100560.81;;;15.45;79.71
17383;BME280;8809;51.892;8.384;2024-03-22T10:11:17;100569.03;;;15.60;79.43
17383;BME280;8809;51.892;8.384;2024-03-22T10:13:43;100560.72;;;15.82;79.33
17383;BME280;8809;51.892;8.384;2024-03-22T10:16:10;100561.69;;;15.87;79.38
17383;BME280;8809;51.892;8.384;2024-03-22T10:18:36;100567.94;;;15.92;78.26
17383;BME280;8809;51.892;8.384;2024-03-22T10:21:04;100558.34;;;15.96;78.17
17383;BME280;8809;51.892;8.384;2024-03-22T10:23:32;100555.69;;;15.93;77.96
17383;BME280;8809;51.892;8.384;2024-03-22T10:25:59;100560.94;;;15.93;78.22
17383;BME280;8809;51.892;8.384;2024-03-22T10:28:25;100546.63;;;15.79;78.89
17383;BME280;8809;51.892;8.384;2024-03-22T10:30:53;100541.47;;;15.83;79.02
17383;BME280;8809;51.892;8.384;2024-03-22T10:33:19;100545.94;;;15.89;78.84
17383;BME280;8809;51.892;8.384;2024-03-22T10:35:51;100551.66;;;15.68;81.61
17383;BME280;8809;51.892;8.384;2024-03-22T10:38:18;100536.69;;;15.64;82.01
17383;BME280;8809;51.892;8.384;2024-03-22T10:40:47;100545.69;;;15.75;82.01
17383;BME280;8809;51.892;8.384;2024-03-22T10:43:13;100538.47;;;15.67;81.50
17383;BME280;8809;51.892;8.384;2024-03-22T10:45:41;100545.50;;;15.68;81.37
17383;BME280;8809;51.892;8.384;2024-03-22T10:48:09;100545.69;;;15.75;81.38
17383;BME280;8809;51.892;8.384;2024-03-22T10:50:38;100539.63;;;15.79;82.03
17383;BME280;8809;51.892;8.384;2024-03-22T10:53:07;100531.81;;;15.84;82.18
17383;BME280;8809;51.892;8.384;2024-03-22T10:55:37;100541.50;;;15.86;81.98
17383;BME280;8809;51.892;8.384;2024-03-22T10:58:04;100540.66;;;15.87;82.84
17383;BME280;8809;51.892;8.384;2024-03-22T11:00:32;100532.78;;;15.89;80.94
17383;BME280;8809;51.892;8.384;2024-03-22T11:02:58;100531.09;;;15.92;80.24
17383;BME280;8809;51.892;8.384;2024-03-22T11:05:26;100527.38;;;15.81;81.46
17383;BME280;8809;51.892;8.384;2024-03-22T11:07:59;100529.16;;;15.82;81.04
17383;BME280;8809;51.892;8.384;2024-03-22T11:10:28;100516.13;;;15.88;82.36
17383;BME280;8809;51.892;8.384;2024-03-22T11:12:55;100516.97;;;15.87;81.53
17383;BME280;8809;51.892;8.384;2024-03-22T11:15:23;100521.41;;;15.90;82.06
17383;BME280;8809;51.892;8.384;2024-03-22T11:17:49;100514.47;;;15.93;81.71
17383;BME280;8809;51.892;8.384;2024-03-22T11:20:16;100519.22;;;16.13;80.60
17383;BME280;8809;51.892;8.384;2024-03-22T11:22:42;100513.72;;;16.01;80.73
17383;BME280;8809;51.892;8.384;2024-03-22T11:25:09;100516.41;;;16.05;81.00
17383;BME280;8809;51.892;8.384;2024-03-22T11:27:35;100508.19;;;15.87;81.37
17383;BME280;8809;51.892;8.384;2024-03-22T11:30:02;100510.81;;;15.85;81.49
17383;BME280;8809;51.892;8.384;2024-03-22T11:32:30;100507.19;;;15.80;82.39
17383;BME280;8809;51.892;8.384;2024-03-22T11:34:57;100506.44;;;15.87;83.14
17383;BME280;8809;51.892;8.384;2024-03-22T11:37:23;100511.69;;;15.87;83.73
17383;BME280;8809;51.892;8.384;2024-03-22T11:39:49;100506.34;;;15.81;83.26
17383;BME280;8809;51.892;8.384;2024-03-22T11:42:15;100500.97;;;15.75;84.28
17383;BME280;8809;51.892;8.384;2024-03-22T11:44:43;100499.41;;;15.85;85.16
17383;BME280;8809;51.892;8.384;2024-03-22T11:47:09;100492.47;;;15.90;85.47
17383;BME280;8809;51.892;8.384;2024-03-22T11:49:37;100498.50;;;15.84;87.11
17383;BME280;8809;51.892;8.384;2024-03-22T11:52:03;100494.72;;;15.70;87.78
17383;BME280;8809;51.892;8.384;2024-03-22T11:54:30;100489.78;;;15.85;86.50
17383;BME280;8809;51.892;8.384;2024-03-22T11:56:56;100489.72;;;15.84;87.99
17383;BME280;8809;51.892;8.384;2024-03-22T11:59:23;100494.81;;;15.76;88.46
17383;BME280;8809;51.892;8.384;2024-03-22T12:01:49;100501.03;;;15.80;87.82
17383;BME280;8809;51.892;8.384;2024-03-22T12:04:15;100488.84;;;15.41;90.17
17383;BME280;8809;51.892;8.384;2024-03-22T12:06:44;100490.03;;;15.54;90.35
17383;BME280;8809;51.892;8.384;2024-03-22T12:09:11;100490.47;;;15.75;90.09
17383;BME280;8809;51.892;8.384;2024-03-22T12:11:38;100485.16;;;15.74;91.17
17383;BME280;8809;51.892;8.384;2024-03-22T12:14:04;100491.31;;;15.74;90.36
17383;BME280;8809;51.892;8.384;2024-03-22T12:16:30;100503.53;;;15.72;90.38
17383;BME280;8809;51.892;8.384;2024-03-22T12:18:57;100491.25;;;15.71;90.89
17383;BME280;8809;51.892;8.384;2024-03-22T12:21:23;100491.16;;;15.68;90.53
17383;BME280;8809;51.892;8.384;2024-03-22T12:23:51;100488.59;;;15.71;90.69
17383;BME280;8809;51.892;8.384;2024-03-22T12:26:17;100490.31;;;15.69;90.72
17383;BME280;8809;51.892;8.384;2024-03-22T12:28:43;100482.06;;;15.52;91.17
17383;BME280;8809;51.892;8.384;2024-03-22T12:31:09;100486.66;;;15.61;91.94
17383;BME280;8809;51.892;8.384;2024-03-22T12:33:36;100480.31;;;15.51;92.50
17383;BME280;8809;51.892;8.384;2024-03-22T12:36:03;100464.38;;;15.44;93.24
17383;BME280;8809;51.892;8.384;2024-03-22T12:38:30;100459.13;;;15.44;93.84
17383;BME280;8809;51.892;8.384;2024-03-22T12:40:57;100472.34;;;15.48;94.04
17383;BME280;8809;51.892;8.384;2024-03-22T12:43:24;100470.25;;;15.31;93.44
17383;BME280;8809;51.892;8.384;2024-03-22T12:45:50;100470.28;;;15.32;93.04
17383;BME280;8809;51.892;8.384;2024-03-22T12:48:19;100464.13;;;15.32;94.04
17383;BME280;8809;51.892;8.384;2024-03-22T12:50:45;100464.34;;;15.42;93.91